sensor_id;sensor_type;location;lat;lon;timestamp;pressure;altitude;pressure_sealevel;temperature;humidity
42289;BME280;30230;47.520;19.016;2023-06-14T00:01:40;98838.19;;;13.57;85.45
42289;BME280;30230;47.520;19.016;2023-06-14T00:03:41;98836.53;;;13.56;87.05
42289;BME280;30230;47.520;19.016;2023-06-14T00:05:41;98824.94;;;13.49;88.70
42289;BME280;30230;47.520;19.016;2023-06-14T00:07:43;98836.53;;;13.56;88.75
42289;BME280;30230;47.520;19.016;2023-06-14T00:09:44;98817.53;;;13.44;88.76
42289;BME280;30230;47.520;19.016;2023-06-14T00:11:44;98817.28;;;13.46;89.06
42289;BME280;30230;47.520;19.016;2023-06-14T00:13:44;98812.94;;;13.45;89.12
42289;BME280;30230;47.520;19.016;2023-06-14T00:15:45;98817.78;;;13.54;89.60
42289;BME280;30230;47.520;19.016;2023-06-14T00:17:46;98827.22;;;13.64;88.94
42289;BME280;30230;47.520;19.016;2023-06-14T00:19:48;98830.88;;;13.58;89.15
42289;BME280;30230;47.520;19.016;2023-06-14T00:21:48;98836.53;;;13.56;89.07
42289;BME280;30230;47.520;19.016;2023-06-14T00:23:49;98839.81;;;13.46;90.76
42289;BME280;30230;47.520;19.016;2023-06-14T00:25:49;98822.09;;;13.32;90.28
42289;BME280;30230;47.520;19.016;2023-06-14T00:27:51;98845.56;;;13.38;91.68
42289;BME280;30230;47.520;19.016;2023-06-14T00:29:51;98844.41;;;13.34;91.67
42289;BME280;30230;47.520;19.016;2023-06-14T00:31:52;98834.94;;;13.25;92.85
42289;BME280;30230;47.520;19.016;2023-06-14T00:33:52;98848.75;;;13.23;94.34
42289;BME280;30230;47.520;19.016;2023-06-14T00:35:53;98833.06;;;13.07;93.14
42289;BME280;30230;47.520;19.016;2023-06-14T00:37:54;98839.78;;;13.04;95.97
42289;BME280;30230;47.520;19.016;2023-06-14T00:39:55;98847.78;;;12.99;95.16
42289;BME280;30230;47.520;19.016;2023-06-14T00:41:56;98830.84;;;12.86;95.19
42289;BME280;30230;47.520;19.016;2023-06-14T00:43:56;98836.66;;;12.89;95.51
42289;BME280;30230;47.520;19.016;2023-06-14T00:45:56;98831.78;;;12.80;95.85
42289;BME280;30230;47.520;19.016;2023-06-14T00:47:57;98853.75;;;12.90;95.99
42289;BME280;30230;47.520;19.016;2023-06-14T00:49:58;98857.13;;;12.85;95.53
42289;BME280;30230;47.520;19.016;2023-06-14T00:52:00;98842.63;;;12.80;96.25
42289;BME280;30230;47.520;19.016;2023-06-14T00:54:02;98843.97;;;12.70;96.25
42289;BME280;30230;47.520;19.016;2023-06-14T00:56:03;98862.13;;;12.70;97.65
42289;BME280;30230;47.520;19.016;2023-06-14T00:58:03;98836.31;;;12.49;99.03
42289;BME280;30230;47.520;19.016;2023-06-14T01:00:04;98835.25;;;12.50;99.49
42289;BME280;30230;47.520;19.016;2023-06-14T01:02:09;98847.31;;;12.54;100.00
42289;BME280;30230;47.520;19.016;2023-06-14T01:04:10;98840.91;;;12.48;98.94
42289;BME280;30230;47.520;19.016;2023-06-14T01:06:31;98841.75;;;12.49;99.45
42289;BME280;30230;47.520;19.016;2023-06-14T01:15:07;98843.09;;;12.40;100.00
42289;BME280;30230;47.520;19.016;2023-06-14T01:17:08;98832.41;;;12.45;99.64
42289;BME280;30230;47.520;19.016;2023-06-14T01:19:17;98827.91;;;12.39;100.00
42289;BME280;30230;47.520;19.016;2023-06-14T01:21:25;98831.00;;;12.42;100.00
42289;BME280;30230;47.520;19.016;2023-06-14T01:23:26;98831.53;;;12.33;100.00
42289;BME280;30230;47.520;19.016;2023-06-14T01:25:32;98838.50;;;12.40;100.00
42289;BME280;30230;47.520;19.016;2023-06-14T01:27:33;98832.72;;;12.37;100.00
42289;BME280;30230;47.520;19.016;2023-06-14T01:29:33;98830.31;;;12.29;100.00
42289;BME280;30230;47.520;19.016;2023-06-14T01:31:36;98824.97;;;12.22;100.00
42289;BME280;30230;47.520;19.016;2023-06-14T01:33:41;98816.84;;;12.22;100.00
42289;BME280;30230;47.520;19.016;2023-06-14T01:35:44;98829.09;;;12.24;100.00
42289;BME280;30230;47.520;19.016;2023-06-14T01:37:47;98827.69;;;12.22;100.00
42289;BME280;30230;47.520;19.016;2023-06-14T01:39:48;98835.22;;;12.20;100.00
42289;BME280;30230;47.520;19.016;2023-06-14T01:41:52;98830.66;;;12.14;100.00
42289;BME280;30230;47.520;19.016;2023-06-14T01:43:54;98834.66;;;12.11;100.00
42289;BME280;30230;47.520;19.016;2023-06-14T01:45:57;98843.38;;;12.13;100.00
42289;BME280;30230;47.520;19.016;2023-06-14T01:47:57;98839.94;;;12.06;100.00
42289;BME280;30230;47.520;19.016;2023-06-14T01:49:58;98839.78;;;12.01;100.00
42289;BME280;30230;47.520;19.016;2023-06-14T01:51:58;98837.06;;;12.01;100.00
42289;BME280;30230;47.520;19.016;2023-06-14T01:53:59;98827.97;;;11.95;100.00
42289;BME280;30230;47.520;19.016;2023-06-14T01:56:00;98834.34;;;12.01;100.00
42289;BME280;30230;47.520;19.016;2023-06-14T01:58:01;98839.31;;;12.04;100.00
42289;BME280;30230;47.520;19.016;2023-06-14T02:00:03;98847.44;;;12.04;100.00
42289;BME280;30230;47.520;19.016;2023-06-14T02:02:04;98850.59;;;12.01;100.00
42289;BME280;30230;47.520;19.016;2023-06-14T02:04:04;98850.59;;;12.01;100.00
42289;BME280;30230;47.520;19.016;2023-06-14T02:06:05;98843.38;;;11.95;100.00
42289;BME280;30230;47.520;19.016;2023-06-14T02:08:06;98854.19;;;11.95;100.00
42289;BME280;30230;47.520;19.016;2023-06-14T02:10:07;98855.47;;;11.92;100.00
42289;BME280;30230;47.520;19.016;2023-06-14T02:12:08;98859.38;;;11.96;100.00
42289;BME280;30230;47.520;19.016;2023-06-14T02:14:09;98842.00;;;11.86;100.00
42289;BME280;30230;47.520;19.016;2023-06-14T02:16:11;98857.50;;;11.97;100.00
42289;BME280;30230;47.520;19.016;2023-06-14T02:18:12;98855.69;;;11.91;100.00
42289;BME280;30230;47.520;19.016;2023-06-14T02:20:13;98846.63;;;11.79;100.00
42289;BME280;30230;47.520;19.016;2023-06-14T02:22:14;98855.13;;;11.82;100.00
42289;BME280;30230;47.520;19.016;2023-06-14T02:24:15;98847.66;;;11.78;100.00
42289;BME280;30230;47.520;19.016;2023-06-14T02:26:16;98841.03;;;11.73;100.00
42289;BME280;30230;47.520;19.016;2023-06-14T02:28:16;98845.81;;;11.71;100.00
42289;BME280;30230;47.520;19.016;2023-06-14T02:30:16;98850.16;;;11.79;100.00
42289;BME280;30230;47.520;19.016;2023-06-14T02:32:17;98856.59;;;11.78;100.00
42289;BME280;30230;47.520;19.016;2023-06-14T02:34:17;98844.78;;;11.72;100.00
42289;BME280;30230;47.520;19.016;2023-06-14T02:36:19;98835.06;;;11.65;100.00
42289;BME280;30230;47.520;19.016;2023-06-14T02:38:20;98862.84;;;11.79;100.00
42289;BME280;30230;47.520;19.016;2023-06-14T02:40:21;98848.75;;;11.70;100.00
42289;BME280;30230;47.520;19.016;2023-06-14T02:42:21;98854.09;;;11.77;100.00
42289;BME280;30230;47.520;19.016;2023-06-14T02:44:25;98839.59;;;11.71;100.00
42289;BME280;30230;47.520;19.016;2023-06-14T02:46:27;98855.34;;;11.81;100.00
42289;BME280;30230;47.520;19.016;2023-06-14T02:48:28;98859.09;;;11.80;100.00
42289;BME280;30230;47.520;19.016;2023-06-14T02:50:28;98846.63;;;11.79;100.00
42289;BME280;30230;47.520;19.016;2023-06-14T02:52:30;98845.56;;;11.80;100.00
42289;BME280;30230;47.520;19.016;2023-06-14T02:54:33;98845.16;;;11.76;100.00
42289;BME280;30230;47.520;19.016;2023-06-14T02:56:33;98854.09;;;11.77;100.00
42289;BME280;30230;47.520;19.016;2023-06-14T02:58:34;98830.91;;;11.62;100.00
42289;BME280;30230;47.520;19.016;2023-06-14T03:00:36;98845.00;;;11.71;100.00
42289;BME280;30230;47.520;19.016;2023-06-14T03:02:38;98850.81;;;11.74;100.00
42289;BME280;30230;47.520;19.016;2023-06-14T03:04:38;98842.91;;;11.73;100.00
42289;BME280;30230;47.520;19.016;2023-06-14T03:06:39;98849.97;;;11.74;100.00
42289;BME280;30230;47.520;19.016;2023-06-14T03:08:40;98849.59;;;11.70;100.00
42289;BME280;30230;47.520;19.016;2023-06-14T03:10:42;98837.53;;;11.66;100.00
42289;BME280;30230;47.520;19.016;2023-06-14T03:12:43;98836.94;;;11.64;100.00
42289;BME280;30230;47.520;19.016;2023-06-14T03:14:43;98841.69;;;11.69;100.00
42289;BME280;30230;47.520;19.016;2023-06-14T03:16:45;98835.31;;;11.63;100.00
42289;BME280;30230;47.520;19.016;2023-06-14T03:18:47;98832.97;;;11.67;100.00
42289;BME280;30230;47.520;19.016;2023-06-14T03:20:47;98834.56;;;11.74;100.00
42289;BME280;30230;47.520;19.016;2023-06-14T03:22:47;98853.44;;;11.81;100.00
42289;BME280;30230;47.520;19.016;2023-06-14T03:24:48;98851.19;;;11.78;100.00
42289;BME280;30230;47.520;19.016;2023-06-14T03:26:48;98858.03;;;11.81;100.00
42289;BME280;30230;47.520;19.016;2023-06-14T03:28:49;98856.16;;;11.81;100.00
42289;BME280;30230;47.520;19.016;2023-06-14T03:30:50;98850.75;;;11.81;100.00
42289;BME280;30230;47.520;19.016;2023-06-14T03:32:50;98855.97;;;11.83;100.00
42289;BME280;30230;47.520;19.016;2023-06-14T03:34:55;98847.06;;;11.76;100.00
42289;BME280;30230;47.520;19.016;2023-06-14T03:36:56;98841.63;;;11.76;100.00
42289;BME280;30230;47.520;19.016;2023-06-14T03:38:56;98840.00;;;11.74;100.00
42289;BME280;30230;47.520;19.016;2023-06-14T03:40:57;98857.41;;;11.85;100.00
42289;BME280;30230;47.520;19.016;2023-06-14T03:42:57;98852.00;;;11.85;100.00
42289;BME280;30230;47.520;19.016;2023-06-14T03:44:58;98837.44;;;11.80;100.00
42289;BME280;30230;47.520;19.016;2023-06-14T03:46:58;98856.28;;;11.93;100.00
42289;BME280;30230;47.520;19.016;2023-06-14T03:48:58;98858.56;;;11.96;100.00
42289;BME280;30230;47.520;19.016;2023-06-14T03:51:00;98856.44;;;11.98;100.00
42289;BME280;30230;47.520;19.016;2023-06-14T03:53:00;98847.72;;;11.96;100.00
42289;BME280;30230;47.520;19.016;2023-06-14T03:55:01;98847.06;;;12.01;100.00
42289;BME280;30230;47.520;19.016;2023-06-14T03:57:02;98858.22;;;12.11;100.00
42289;BME280;30230;47.520;19.016;2023-06-14T03:59:03;98859.63;;;12.13;100.00
42289;BME280;30230;47.520;19.016;2023-06-14T04:01:03;98856.63;;;12.21;100.00
42289;BME280;30230;47.520;19.016;2023-06-14T04:03:03;98847.16;;;12.12;100.00
42289;BME280;30230;47.520;19.016;2023-06-14T04:05:06;98871.56;;;12.31;100.00
42289;BME280;30230;47.520;19.016;2023-06-14T04:07:08;98860.88;;;12.36;100.00
42289;BME280;30230;47.520;19.016;2023-06-14T04:09:09;98862.69;;;12.42;100.00
42289;BME280;30230;47.520;19.016;2023-06-14T04:11:09;98858.09;;;12.42;100.00
42289;BME280;30230;47.520;19.016;2023-06-14T04:13:10;98862.97;;;12.52;100.00
42289;BME280;30230;47.520;19.016;2023-06-14T04:15:13;98870.63;;;12.55;100.00
42289;BME280;30230;47.520;19.016;2023-06-14T04:17:14;98871.59;;;12.61;100.00
42289;BME280;30230;47.520;19.016;2023-06-14T04:19:15;98866.34;;;12.66;100.00
42289;BME280;30230;47.520;19.016;2023-06-14T04:21:15;98854.53;;;12.60;100.00
42289;BME280;30230;47.520;19.016;2023-06-14T04:23:17;98855.88;;;12.69;100.00
42289;BME280;30230;47.520;19.016;2023-06-14T04:25:21;98875.44;;;12.90;100.00
42289;BME280;30230;47.520;19.016;2023-06-14T04:27:23;98881.13;;;13.00;100.00
42289;BME280;30230;47.520;19.016;2023-06-14T04:29:25;98873.84;;;13.00;100.00
42289;BME280;30230;47.520;19.016;2023-06-14T04:31:28;98868.81;;;13.16;100.00
42289;BME280;30230;47.520;19.016;2023-06-14T04:33:29;98877.72;;;13.23;100.00
42289;BME280;30230;47.520;19.016;2023-06-14T04:35:29;98874.56;;;13.26;100.00
42289;BME280;30230;47.520;19.016;2023-06-14T04:37:32;98877.78;;;13.35;100.00
42289;BME280;30230;47.520;19.016;2023-06-14T04:39:33;98865.72;;;13.31;100.00
42289;BME280;30230;47.520;19.016;2023-06-14T04:41:33;98866.69;;;13.36;100.00
42289;BME280;30230;47.520;19.016;2023-06-14T04:43:35;98875.91;;;13.47;100.00
42289;BME280;30230;47.520;19.016;2023-06-14T04:45:38;98888.94;;;13.57;100.00
42289;BME280;30230;47.520;19.016;2023-06-14T04:47:39;98882.81;;;13.61;100.00
42289;BME280;30230;47.520;19.016;2023-06-14T04:49:40;98869.69;;;13.58;100.00
42289;BME280;30230;47.520;19.016;2023-06-14T04:51:41;98893.31;;;13.69;100.00
42289;BME280;30230;47.520;19.016;2023-06-14T04:53:42;98886.84;;;13.82;100.00
42289;BME280;30230;47.520;19.016;2023-06-14T04:55:44;98878.13;;;13.92;100.00
42289;BME280;30230;47.520;19.016;2023-06-14T04:57:45;98880.47;;;14.00;100.00
42289;BME280;30230;47.520;19.016;2023-06-14T04:59:45;98887.22;;;13.97;100.00
42289;BME280;30230;47.520;19.016;2023-06-14T05:01:45;98889.69;;;13.99;100.00
42289;BME280;30230;47.520;19.016;2023-06-14T05:03:49;98884.16;;;14.17;99.47
42289;BME280;30230;47.520;19.016;2023-06-14T05:05:50;98888.28;;;14.08;99.89
42289;BME280;30230;47.520;19.016;2023-06-14T05:07:50;98890.44;;;14.06;100.00
42289;BME280;30230;47.520;19.016;2023-06-14T05:09:51;98889.81;;;14.16;100.00
42289;BME280;30230;47.520;19.016;2023-06-14T05:11:51;98887.22;;;14.21;100.00
42289;BME280;30230;47.520;19.016;2023-06-14T05:13:52;98890.06;;;14.26;100.00
42289;BME280;30230;47.520;19.016;2023-06-14T05:15:52;98877.41;;;14.31;100.00
42289;BME280;30230;47.520;19.016;2023-06-14T05:17:53;98870.56;;;14.29;100.00
42289;BME280;30230;47.520;19.016;2023-06-14T05:19:55;98894.19;;;14.52;99.50
42289;BME280;30230;47.520;19.016;2023-06-14T05:21:57;98894.19;;;14.52;98.12
42289;BME280;30230;47.520;19.016;2023-06-14T05:23:57;98881.75;;;14.68;97.39
42289;BME280;30230;47.520;19.016;2023-06-14T05:25:58;98882.00;;;14.66;97.28
42289;BME280;30230;47.520;19.016;2023-06-14T05:27:58;98860.88;;;14.56;98.41
42289;BME280;30230;47.520;19.016;2023-06-14T05:29:59;98892.63;;;14.79;99.05
42289;BME280;30230;47.520;19.016;2023-06-14T05:31:59;98882.47;;;14.75;98.89
42289;BME280;30230;47.520;19.016;2023-06-14T05:34:00;98877.88;;;14.75;97.80
42289;BME280;30230;47.520;19.016;2023-06-14T05:36:00;98887.78;;;14.81;96.99
42289;BME280;30230;47.520;19.016;2023-06-14T05:38:01;98876.22;;;14.74;97.54
42289;BME280;30230;47.520;19.016;2023-06-14T05:40:02;98884.81;;;14.83;98.21
42289;BME280;30230;47.520;19.016;2023-06-14T05:42:05;98895.06;;;14.93;97.37
42289;BME280;30230;47.520;19.016;2023-06-14T05:44:06;98877.03;;;14.75;98.14
42289;BME280;30230;47.520;19.016;2023-06-14T05:46:07;98886.69;;;14.82;97.23
42289;BME280;30230;47.520;19.016;2023-06-14T05:48:10;98896.72;;;14.94;97.39
42289;BME280;30230;47.520;19.016;2023-06-14T05:50:11;98894.69;;;15.01;96.93
42289;BME280;30230;47.520;19.016;2023-06-14T05:52:11;98897.53;;;15.06;94.97
42289;BME280;30230;47.520;19.016;2023-06-14T05:54:13;98891.69;;;15.14;95.73
42289;BME280;30230;47.520;19.016;2023-06-14T05:56:14;98887.28;;;15.25;93.20
42289;BME280;30230;47.520;19.016;2023-06-14T05:58:15;98902.75;;;15.53;92.45
42289;BME280;30230;47.520;19.016;2023-06-14T06:00:16;98894.94;;;15.56;92.09
42289;BME280;30230;47.520;19.016;2023-06-14T06:02:17;98889.38;;;15.63;91.55
42289;BME280;30230;47.520;19.016;2023-06-14T06:04:17;98904.88;;;15.79;90.55
42289;BME280;30230;47.520;19.016;2023-06-14T06:06:17;98895.25;;;15.88;91.35
42289;BME280;30230;47.520;19.016;2023-06-14T06:08:18;98889.38;;;15.97;92.35
42289;BME280;30230;47.520;19.016;2023-06-14T06:10:18;98894.84;;;16.13;94.71
42289;BME280;30230;47.520;19.016;2023-06-14T06:12:19;98899.22;;;16.14;90.94
42289;BME280;30230;47.520;19.016;2023-06-14T06:14:19;98907.19;;;16.21;88.00
42289;BME280;30230;47.520;19.016;2023-06-14T06:16:20;98891.59;;;16.17;88.78
42289;BME280;30230;47.520;19.016;2023-06-14T06:18:20;98896.31;;;16.21;88.03
42289;BME280;30230;47.520;19.016;2023-06-14T06:20:22;98886.91;;;16.29;87.82
42289;BME280;30230;47.520;19.016;2023-06-14T06:22:27;98897.69;;;16.40;86.52
42289;BME280;30230;47.520;19.016;2023-06-14T06:24:28;98887.28;;;16.37;85.13
42289;BME280;30230;47.520;19.016;2023-06-14T06:26:28;98904.31;;;16.66;84.14
42289;BME280;30230;47.520;19.016;2023-06-14T06:28:28;98908.47;;;16.52;83.24
42289;BME280;30230;47.520;19.016;2023-06-14T06:30:29;98899.84;;;16.38;86.32
42289;BME280;30230;47.520;19.016;2023-06-14T06:32:29;98911.25;;;16.35;87.79
42289;BME280;30230;47.520;19.016;2023-06-14T06:34:30;98907.25;;;16.43;86.70
42289;BME280;30230;47.520;19.016;2023-06-14T06:36:31;98896.03;;;16.39;88.03
42289;BME280;30230;47.520;19.016;2023-06-14T06:38:32;98897.91;;;16.56;87.63
42289;BME280;30230;47.520;19.016;2023-06-14T06:40:33;98898.16;;;16.71;85.39
42289;BME280;30230;47.520;19.016;2023-06-14T06:42:33;98886.22;;;16.77;83.49
42289;BME280;30230;47.520;19.016;2023-06-14T06:44:33;98881.22;;;16.91;82.91
42289;BME280;30230;47.520;19.016;2023-06-14T06:46:34;98875.41;;;17.09;83.98
42289;BME280;30230;47.520;19.016;2023-06-14T06:48:35;98880.34;;;17.34;79.71
42289;BME280;30230;47.520;19.016;2023-06-14T06:50:36;98904.13;;;17.39;80.94
42289;BME280;30230;47.520;19.016;2023-06-14T06:52:36;98883.03;;;17.07;82.46
42289;BME280;30230;47.520;19.016;2023-06-14T06:54:37;98905.97;;;17.06;82.05
42289;BME280;30230;47.520;19.016;2023-06-14T06:56:37;98892.50;;;17.00;82.48
42289;BME280;30230;47.520;19.016;2023-06-14T06:58:38;98885.13;;;17.00;82.20
42289;BME280;30230;47.520;19.016;2023-06-14T07:00:38;98899.84;;;17.21;82.46
42289;BME280;30230;47.520;19.016;2023-06-14T07:02:38;98892.50;;;17.49;83.01
42289;BME280;30230;47.520;19.016;2023-06-14T07:04:39;98899.97;;;17.58;79.97
42289;BME280;30230;47.520;19.016;2023-06-14T07:06:39;98914.63;;;17.47;81.80
42289;BME280;30230;47.520;19.016;2023-06-14T07:08:39;98912.72;;;17.48;82.07
42289;BME280;30230;47.520;19.016;2023-06-14T07:10:40;98917.56;;;17.45;80.91
42289;BME280;30230;47.520;19.016;2023-06-14T07:12:40;98911.50;;;17.38;80.60
42289;BME280;30230;47.520;19.016;2023-06-14T07:14:41;98906.56;;;17.35;81.44
42289;BME280;30230;47.520;19.016;2023-06-14T07:16:41;98903.75;;;17.57;81.60
42289;BME280;30230;47.520;19.016;2023-06-14T07:18:43;98888.63;;;17.71;83.29
42289;BME280;30230;47.520;19.016;2023-06-14T07:20:44;98913.19;;;17.99;84.10
42289;BME280;30230;47.520;19.016;2023-06-14T07:22:44;98911.81;;;17.96;82.66
42289;BME280;30230;47.520;19.016;2023-06-14T07:24:45;98914.97;;;17.83;78.48
42289;BME280;30230;47.520;19.016;2023-06-14T07:26:45;98909.78;;;17.81;78.93
42289;BME280;30230;47.520;19.016;2023-06-14T07:28:47;98907.63;;;17.83;78.90
42289;BME280;30230;47.520;19.016;2023-06-14T07:30:51;98888.63;;;18.04;78.43
42289;BME280;30230;47.520;19.016;2023-06-14T07:32:53;98889.81;;;18.13;78.96
42289;BME280;30230;47.520;19.016;2023-06-14T07:34:53;98901.72;;;18.34;79.92
42289;BME280;30230;47.520;19.016;2023-06-14T07:36:54;98908.84;;;18.40;80.05
42289;BME280;30230;47.520;19.016;2023-06-14T07:38:54;98911.69;;;18.55;83.20
42289;BME280;30230;47.520;19.016;2023-06-14T07:40:55;98918.75;;;18.46;74.86
42289;BME280;30230;47.520;19.016;2023-06-14T07:42:55;98915.31;;;18.66;77.39
42289;BME280;30230;47.520;19.016;2023-06-14T07:44:56;98908.69;;;18.52;76.34
42289;BME280;30230;47.520;19.016;2023-06-14T07:46:56;98920.72;;;18.51;77.04
42289;BME280;30230;47.520;19.016;2023-06-14T07:48:59;98926.16;;;18.45;81.66
42289;BME280;30230;47.520;19.016;2023-06-14T07:51:00;98922.88;;;18.48;76.06
42289;BME280;30230;47.520;19.016;2023-06-14T07:53:01;98928.53;;;18.37;76.21
42289;BME280;30230;47.520;19.016;2023-06-14T07:55:01;98912.03;;;18.21;75.09
42289;BME280;30230;47.520;19.016;2023-06-14T07:57:02;98908.13;;;18.12;75.53
42289;BME280;30230;47.520;19.016;2023-06-14T07:59:03;98890.94;;;18.17;76.70
42289;BME280;30230;47.520;19.016;2023-06-14T08:01:03;98935.06;;;18.68;77.32
42289;BME280;30230;47.520;19.016;2023-06-14T08:03:06;98909.00;;;18.65;77.62
42289;BME280;30230;47.520;19.016;2023-06-14T08:05:07;98918.38;;;18.69;77.25
42289;BME280;30230;47.520;19.016;2023-06-14T08:07:08;98927.22;;;18.82;72.43
42289;BME280;30230;47.520;19.016;2023-06-14T08:09:08;98924.66;;;18.70;72.74
42289;BME280;30230;47.520;19.016;2023-06-14T08:11:09;98934.66;;;18.96;71.31
42289;BME280;30230;47.520;19.016;2023-06-14T08:13:09;98916.56;;;18.90;70.87
42289;BME280;30230;47.520;19.016;2023-06-14T08:15:10;98916.47;;;19.43;71.08
42289;BME280;30230;47.520;19.016;2023-06-14T08:17:10;98912.13;;;19.57;70.72
42289;BME280;30230;47.520;19.016;2023-06-14T08:19:10;98901.78;;;19.64;71.00
42289;BME280;30230;47.520;19.016;2023-06-14T08:21:11;98923.06;;;19.47;70.38
42289;BME280;30230;47.520;19.016;2023-06-14T08:23:12;98927.19;;;19.39;70.66
42289;BME280;30230;47.520;19.016;2023-06-14T08:25:13;98923.03;;;19.37;74.11
42289;BME280;30230;47.520;19.016;2023-06-14T08:27:13;98883.63;;;19.53;71.43
42289;BME280;30230;47.520;19.016;2023-06-14T08:29:14;98915.22;;;19.81;72.47
42289;BME280;30230;47.520;19.016;2023-06-14T08:31:15;98918.47;;;19.63;74.61
42289;BME280;30230;47.520;19.016;2023-06-14T08:33:15;98909.94;;;19.49;69.58
42289;BME280;30230;47.520;19.016;2023-06-14T08:35:16;98909.34;;;19.32;68.62
42289;BME280;30230;47.520;19.016;2023-06-14T08:37:17;98935.63;;;19.33;73.81
42289;BME280;30230;47.520;19.016;2023-06-14T08:39:17;98948.44;;;19.22;71.83
42289;BME280;30230;47.520;19.016;2023-06-14T08:41:21;98935.50;;;19.02;69.57
42289;BME280;30230;47.520;19.016;2023-06-14T08:43:22;98939.59;;;18.99;69.63
42289;BME280;30230;47.520;19.016;2023-06-14T08:45:23;98951.06;;;18.91;71.58
42289;BME280;30230;47.520;19.016;2023-06-14T08:47:26;98929.94;;;18.82;74.46
42289;BME280;30230;47.520;19.016;2023-06-14T08:49:29;98948.00;;;18.83;74.27
42289;BME280;30230;47.520;19.016;2023-06-14T08:51:31;98953.47;;;18.83;76.58
42289;BME280;30230;47.520;19.016;2023-06-14T08:53:37;98948.47;;;18.69;75.64
42289;BME280;30230;47.520;19.016;2023-06-14T08:55:42;98964.16;;;18.84;74.71
42289;BME280;30230;47.520;19.016;2023-06-14T08:57:44;98947.69;;;18.74;74.22
42289;BME280;30230;47.520;19.016;2023-06-14T08:59:49;98961.13;;;18.81;73.93
42289;BME280;30230;47.520;19.016;2023-06-14T09:01:53;98961.94;;;18.81;74.50
42289;BME280;30230;47.520;19.016;2023-06-14T09:03:54;98971.56;;;18.89;72.92
42289;BME280;30230;47.520;19.016;2023-06-14T09:05:57;98961.97;;;18.86;73.64
42289;BME280;30230;47.520;19.016;2023-06-14T09:08:01;98970.22;;;18.96;75.66
42289;BME280;30230;47.520;19.016;2023-06-14T09:10:09;98977.94;;;18.99;73.03
42289;BME280;30230;47.520;19.016;2023-06-14T09:12:11;98975.25;;;19.10;74.20
42289;BME280;30230;47.520;19.016;2023-06-14T09:14:13;98975.19;;;18.99;70.60
42289;BME280;30230;47.520;19.016;2023-06-14T09:16:14;98962.84;;;18.92;70.89
42289;BME280;30230;47.520;19.016;2023-06-14T09:18:14;98978.19;;;18.98;69.71
42289;BME280;30230;47.520;19.016;2023-06-14T09:20:15;98978.72;;;18.95;71.12
42289;BME280;30230;47.520;19.016;2023-06-14T09:22:19;98979.84;;;18.99;70.13
42289;BME280;30230;47.520;19.016;2023-06-14T09:24:19;98978.19;;;18.98;69.62
42289;BME280;30230;47.520;19.016;2023-06-14T09:26:20;98971.59;;;18.94;69.74
42289;BME280;30230;47.520;19.016;2023-06-14T09:28:26;98977.38;;;18.97;68.81
42289;BME280;30230;47.520;19.016;2023-06-14T09:30:28;98976.56;;;19.02;69.51
42289;BME280;30230;47.520;19.016;2023-06-14T09:32:28;98961.22;;;19.01;68.83
42289;BME280;30230;47.520;19.016;2023-06-14T09:34:29;98962.66;;;19.09;66.57
42289;BME280;30230;47.520;19.016;2023-06-14T09:36:31;98965.28;;;19.56;66.76
42289;BME280;30230;47.520;19.016;2023-06-14T09:38:34;98956.91;;;20.65;66.10
42289;BME280;30230;47.520;19.016;2023-06-14T09:40:35;98967.00;;;21.00;59.40
42289;BME280;30230;47.520;19.016;2023-06-14T09:42:39;98948.66;;;20.75;62.35
42289;BME280;30230;47.520;19.016;2023-06-14T09:44:41;98952.88;;;21.27;57.85
42289;BME280;30230;47.520;19.016;2023-06-14T09:46:41;98945.63;;;21.56;53.30
42289;BME280;30230;47.520;19.016;2023-06-14T09:48:42;98949.19;;;21.62;54.17
42289;BME280;30230;47.520;19.016;2023-06-14T09:50:45;98932.53;;;21.38;54.27
42289;BME280;30230;47.520;19.016;2023-06-14T09:52:47;98930.09;;;21.26;57.71
42289;BME280;30230;47.520;19.016;2023-06-14T09:54:49;98928.88;;;21.97;57.96
42289;BME280;30230;47.520;19.016;2023-06-14T09:56:50;98940.00;;;22.50;57.93
42289;BME280;30230;47.520;19.016;2023-06-14T09:58:59;98918.44;;;22.86;57.67
42289;BME280;30230;47.520;19.016;2023-06-14T10:00:59;98932.34;;;23.00;49.99
42289;BME280;30230;47.520;19.016;2023-06-14T10:03:03;98933.00;;;22.87;47.70
42289;BME280;30230;47.520;19.016;2023-06-14T10:05:07;98929.31;;;22.73;49.23
42289;BME280;30230;47.520;19.016;2023-06-14T10:07:09;98941.66;;;23.04;46.02
42289;BME280;30230;47.520;19.016;2023-06-14T10:09:10;98921.50;;;23.09;48.10
42289;BME280;30230;47.520;19.016;2023-06-14T10:11:12;98938.38;;;23.45;47.78
42289;BME280;30230;47.520;19.016;2023-06-14T10:13:14;98937.09;;;23.80;46.54
42289;BME280;30230;47.520;19.016;2023-06-14T10:15:30;98927.16;;;24.17;47.71
42289;BME280;30230;47.520;19.016;2023-06-14T10:17:54;98918.38;;;23.58;48.63
42289;BME280;30230;47.520;19.016;2023-06-14T10:20:16;98928.53;;;23.82;47.17
42289;BME280;30230;47.520;19.016;2023-06-14T10:22:39;98916.25;;;24.26;44.70
42289;BME280;30230;47.520;19.016;2023-06-14T10:24:45;98904.66;;;24.42;43.10
42289;BME280;30230;47.520;19.016;2023-06-14T10:26:54;98925.91;;;23.72;44.63
42289;BME280;30230;47.520;19.016;2023-06-14T10:28:57;98921.88;;;24.02;44.80
42289;BME280;30230;47.520;19.016;2023-06-14T10:33:08;98919.59;;;22.80;45.27
42289;BME280;30230;47.520;19.016;2023-06-14T10:35:16;98923.03;;;22.38;45.18
42289;BME280;30230;47.520;19.016;2023-06-14T10:37:16;98927.13;;;22.12;44.91
42289;BME280;30230;47.520;19.016;2023-06-14T10:39:17;98921.88;;;21.71;46.21
42289;BME280;30230;47.520;19.016;2023-06-14T10:41:19;98919.59;;;21.44;46.77